Time;durP1;ratioP1;P1;durP2;ratioP2;P2;SDS_P1;SDS_P2;PMS_P1;PMS_P2;Temp;Humidity;BMP_temperature;BMP_pressure;BME280_temperature;BME280_humidity;BME280_pressure;Samples;Min_cycle;Max_cycle;Signal;HPM_P1;HPM_P2
2022/01/31 00:02:13;;;;;;;5.20;1.70;;;;;;;0.46;66.67;95100.59;1832006;78;20982;-78
2022/01/31 00:04:41;;;;;;;4.60;1.30;;;;;;;0.50;66.44;95089.37;1831618;78;21476;-77
2022/01/31 00:07:10;;;;;;;5.77;1.20;;;;;;;0.52;66.18;95097.19;1831950;78;21491;-77
2022/01/31 00:09:44;;;;;;;3.50;1.33;;;;;;;0.49;66.46;95100.62;1832194;78;21490;-77
2022/01/31 00:12:18;;;;;;;5.25;1.32;;;;;;;0.50;66.15;95100.19;1832246;78;20989;-77
2022/01/31 00:14:45;;;;;;;7.70;1.70;;;;;;;0.51;65.94;95098.05;1831614;78;21078;-77
2022/01/31 00:17:13;;;;;;;7.33;1.60;;;;;;;0.55;65.77;95094.63;1831896;78;21045;-77
2022/01/31 00:19:42;;;;;;;8.37;1.60;;;;;;;0.57;65.62;95113.25;1832024;78;21048;-77
2022/01/31 00:22:12;;;;;;;7.47;1.53;;;;;;;0.53;65.48;95104.11;1832017;78;20974;-77
2022/01/31 00:24:39;;;;;;;6.30;1.20;;;;;;;0.56;65.29;95110.66;1831973;78;21010;-77
2022/01/31 00:27:08;;;;;;;8.80;1.33;;;;;;;0.53;65.50;95106.70;1831960;78;20990;-77
2022/01/31 00:29:35;;;;;;;2.97;0.90;;;;;;;0.52;65.55;95104.97;1831963;78;21057;-77
2022/01/31 00:32:02;;;;;;;5.40;1.80;;;;;;;0.53;65.20;95108.90;1832129;78;21061;-77
2022/01/31 00:34:29;;;;;;;5.07;1.73;;;;;;;0.52;65.43;95103.67;1832120;78;21002;-77
2022/01/31 00:36:55;;;;;;;7.80;1.23;;;;;;;0.51;65.68;95102.81;1831951;78;20950;-77
2022/01/31 00:39:22;;;;;;;4.60;0.97;;;;;;;0.49;65.95;95099.75;1832108;78;21057;-77
2022/01/31 00:41:49;;;;;;;9.77;1.87;;;;;;;0.45;65.45;95110.94;1831961;78;21029;-77
2022/01/31 00:44:27;;;;;;;5.33;1.50;;;;;;;0.48;65.64;95116.16;1825863;78;20980;-77
2022/01/31 00:46:59;;;;;;;4.27;1.23;;;;;;;0.46;65.59;95113.56;1825515;78;20994;-77
2022/01/31 00:49:33;;;;;;;5.47;1.70;;;;;;;0.47;65.57;95127.41;1825943;78;20966;-77
2022/01/31 00:51:50;;;;;;;4.80;1.20;;;;;;;0.44;65.53;95129.54;1823654;78;22179;-77
2022/01/31 00:54:17;;;;;;;6.87;1.50;;;;;;;0.48;64.98;95123.95;1793161;78;21045;-77
2022/01/31 00:56:44;;;;;;;5.73;1.13;;;;;;;0.50;64.84;95132.20;1826339;78;20990;-77
2022/01/31 00:59:10;;;;;;;5.73;1.63;;;;;;;0.48;65.27;95123.55;1826205;78;21010;-77
2022/01/31 01:01:37;;;;;;;6.03;1.50;;;;;;;0.48;64.91;95126.54;1826425;78;21010;-77
2022/01/31 01:04:04;;;;;;;8.37;1.73;;;;;;;0.47;64.81;95125.67;1826142;78;21069;-77
2022/01/31 01:06:30;;;;;;;10.43;2.30;;;;;;;0.48;65.00;95130.44;1826055;78;20978;-77
2022/01/31 01:08:56;;;;;;;6.10;1.83;;;;;;;0.48;65.14;95134.33;1826168;78;21113;-77
2022/01/31 01:11:23;;;;;;;3.50;1.17;;;;;;;0.46;65.09;95135.63;1826287;78;21440;-77
2022/01/31 01:13:50;;;;;;;3.07;1.30;;;;;;;0.47;65.09;95139.95;1826099;78;21062;-77
2022/01/31 01:16:16;;;;;;;2.83;1.07;;;;;;;0.46;64.93;95116.16;1826200;78;20986;-77
2022/01/31 01:18:43;;;;;;;5.77;1.43;;;;;;;0.44;65.09;95126.94;1826232;78;21062;-77
2022/01/31 01:21:09;;;;;;;6.23;1.50;;;;;;;0.43;65.22;95126.52;1826061;78;21026;-77
2022/01/31 01:23:36;;;;;;;10.20;2.33;;;;;;;0.39;65.48;95126.02;1826271;78;20962;-77
2022/01/31 01:26:04;;;;;;;5.97;1.40;;;;;;;0.37;65.17;95110.84;1826221;78;21006;-77
2022/01/31 01:28:30;;;;;;;7.60;1.60;;;;;;;0.36;65.00;95113.88;1826129;78;21528;-77
2022/01/31 01:30:57;;;;;;;9.43;1.30;;;;;;;0.38;65.25;95124.28;1826276;78;21038;-76
2022/01/31 01:33:25;;;;;;;8.00;1.87;;;;;;;0.33;65.34;95126.81;1826174;78;21053;-77
2022/01/31 01:35:53;;;;;;;7.93;1.87;;;;;;;0.34;65.22;95114.70;1826159;78;20978;-77
2022/01/31 01:38:28;;;;;;;8.50;1.50;;;;;;;0.33;65.42;95107.35;1826073;78;21073;-77
2022/01/31 01:40:51;;;;;;;9.40;1.90;;;;;;;0.32;65.16;95111.21;1825424;78;20947;-77
2022/01/31 01:43:19;;;;;;;7.30;1.67;;;;;;;0.32;65.32;95109.48;1826138;78;21009;-78
2022/01/31 01:45:45;;;;;;;6.97;1.87;;;;;;;0.30;65.29;95103.83;1826260;78;20998;-78
2022/01/31 01:48:13;;;;;;;5.27;1.43;;;;;;;0.29;65.51;95096.48;1826035;78;21018;-77
2022/01/31 01:50:40;;;;;;;4.70;1.47;;;;;;;0.27;65.45;95098.17;1826187;78;20942;-78
2022/01/31 01:53:08;;;;;;;11.27;1.90;;;;;;;0.26;65.65;95109.42;1826150;78;21563;-77
2022/01/31 01:55:36;;;;;;;4.73;2.07;;;;;;;0.24;65.31;95113.70;1826175;78;21010;-77
2022/01/31 01:58:05;;;;;;;5.73;1.30;;;;;;;0.27;65.49;95094.72;1826170;78;21028;-77
2022/01/31 02:00:49;;;;;;;8.00;1.27;;;;;;;0.27;64.79;95114.17;1826292;78;21440;-77
2022/01/31 02:03:02;;;;;;;7.07;1.70;;;;;;;0.30;64.77;95102.53;1822156;78;21010;-77
2022/01/31 02:05:29;;;;;;;4.70;1.40;;;;;;;0.30;64.70;95111.61;1826476;78;21440;-77
2022/01/31 02:07:56;;;;;;;7.67;1.17;;;;;;;0.33;64.67;95106.05;1826094;78;21060;-78
2022/01/31 02:10:25;;;;;;;5.40;0.80;;;;;;;0.29;64.77;95100.37;1826265;78;20954;-77
2022/01/31 02:13:10;;;;;;;5.80;1.50;;;;;;;0.31;64.80;95117.27;1825488;78;21042;-77
2022/01/31 02:15:55;;;;;;;13.83;2.13;;;;;;;0.29;64.92;95114.64;1826168;78;21002;-77
2022/01/31 02:18:29;;;;;;;4.73;1.27;;;;;;;0.28;65.01;95105.13;1824041;78;21085;-77
2022/01/31 02:20:56;;;;;;;7.07;1.70;;;;;;;0.25;65.19;95095.98;1826227;78;20990;-77
2022/01/31 02:23:23;;;;;;;6.83;1.47;;;;;;;0.25;65.20;95118.03;1826137;78;21010;-77
2022/01/31 02:26:03;;;;;;;7.93;1.93;;;;;;;0.23;65.30;95121.06;1824647;78;20962;-78
2022/01/31 02:28:40;;;;;;;5.73;1.10;;;;;;;0.21;65.46;95113.24;1784088;78;21031;-77
2022/01/31 02:31:07;;;;;;;6.10;1.30;;;;;;;0.19;65.39;95105.86;1826320;78;21528;-77
2022/01/31 02:33:34;;;;;;;6.67;1.80;;;;;;;0.16;65.52;95104.53;1826077;78;21095;-77
2022/01/31 02:36:04;;;;;;;5.90;2.33;;;;;;;0.15;65.48;95111.88;1826166;78;21032;-78
2022/01/31 02:38:31;;;;;;;6.33;1.50;;;;;;;0.15;65.44;95101.50;1826134;78;21074;-78
2022/01/31 02:41:00;;;;;;;6.03;1.37;;;;;;;0.16;65.37;95099.34;1826143;78;20974;-78
2022/01/31 02:43:30;;;;;;;2.30;1.17;;;;;;;0.16;65.52;95103.66;1828528;78;21037;-77
2022/01/31 02:45:58;;;;;;;8.27;1.70;;;;;;;0.15;65.32;95105.39;1829251;78;21488;-78
2022/01/31 02:48:27;;;;;;;5.47;2.10;;;;;;;0.13;65.29;95099.30;1831872;78;21093;-78
2022/01/31 02:50:54;;;;;;;7.23;1.63;;;;;;;0.08;65.54;95104.86;1831859;78;21018;-78
2022/01/31 02:53:32;;;;;;;8.63;1.73;;;;;;;0.06;65.18;95099.20;1831659;78;21044;-77
2022/01/31 02:55:50;;;;;;;5.27;1.33;;;;;;;0.07;65.31;95097.91;1827042;78;20978;-78
2022/01/31 02:58:20;;;;;;;3.10;1.20;;;;;;;0.03;65.39;95088.80;1831856;78;21504;-77
2022/01/31 03:00:49;;;;;;;9.07;1.90;;;;;;;-0.01;65.66;95083.97;1831863;78;21065;-77
2022/01/31 03:03:18;;;;;;;7.37;1.80;;;;;;;-0.02;65.63;95088.30;1802402;78;20970;-77
2022/01/31 03:05:45;;;;;;;6.30;1.30;;;;;;;-0.04;65.59;95086.53;1831548;78;20991;-77
2022/01/31 03:08:13;;;;;;;6.13;1.17;;;;;;;-0.07;65.57;95078.28;1831884;78;21053;-77
2022/01/31 03:10:39;;;;;;;9.13;1.60;;;;;;;-0.09;65.72;95086.46;1831975;78;21073;-77
2022/01/31 03:13:06;;;;;;;2.23;0.83;;;;;;;-0.13;66.00;95088.55;1832064;78;21033;-78
2022/01/31 03:15:35;;;;;;;5.47;1.37;;;;;;;-0.14;66.20;95093.30;1831282;78;21472;-77
2022/01/31 03:18:07;;;;;;;5.40;1.47;;;;;;;-0.17;66.44;95104.07;1773422;78;20960;-77
2022/01/31 03:20:34;;;;;;;5.53;1.63;;;;;;;-0.15;66.42;95099.36;1831844;78;20994;-77
2022/01/31 03:23:01;;;;;;;9.00;1.33;;;;;;;-0.16;66.62;95100.19;1831903;78;21472;-78
2022/01/31 03:25:28;;;;;;;3.57;1.37;;;;;;;-0.19;66.70;95096.26;1831791;78;21062;-77
2022/01/31 03:27:55;;;;;;;6.33;1.40;;;;;;;-0.18;66.59;95107.49;1831971;78;20994;-77
2022/01/31 03:30:24;;;;;;;5.33;1.77;;;;;;;-0.17;66.65;95120.49;1831847;78;21033;-78
2022/01/31 03:32:52;;;;;;;7.00;1.70;;;;;;;-0.17;66.68;95119.20;1831679;78;21528;-77
2022/01/31 03:35:19;;;;;;;11.00;1.20;;;;;;;-0.19;66.89;95115.70;1831943;78;21018;-77
2022/01/31 03:37:46;;;;;;;8.33;2.10;;;;;;;-0.16;66.72;95113.58;1800718;78;20990;-77
2022/01/31 03:40:16;;;;;;;3.50;1.07;;;;;;;-0.16;66.79;95110.55;1831466;78;21752;-80
2022/01/31 03:42:42;;;;;;;8.23;2.70;;;;;;;-0.16;66.52;95101.91;1831563;78;20997;-74
2022/01/31 03:45:10;;;;;;;3.80;0.97;;;;;;;-0.15;66.44;95099.75;1800760;78;21460;-72
2022/01/31 03:47:44;;;;;;;17.83;1.80;;;;;;;-0.17;66.23;95107.53;1831772;78;21590;-73
2022/01/31 03:50:06;;;;;;;6.97;1.40;;;;;;;-0.16;66.34;95105.80;1830894;78;20978;-73
2022/01/31 03:52:33;;;;;;;6.57;1.30;;;;;;;-0.15;66.21;95103.24;1831751;78;21005;-73
2022/01/31 03:55:00;;;;;;;7.13;1.70;;;;;;;-0.14;66.12;95111.89;1831806;78;21013;-73
2022/01/31 03:57:29;;;;;;;9.97;2.27;;;;;;;-0.16;66.42;95089.81;1831997;78;21075;-73
2022/01/31 04:00:16;;;;;;;6.40;1.87;;;;;;;-0.15;66.43;95106.23;1831615;78;21546;-73
2022/01/31 04:02:45;;;;;;;13.77;2.70;;;;;;;-0.18;66.83;95107.06;1831985;78;21571;-73
2022/01/31 04:05:12;;;;;;;11.87;1.97;;;;;;;-0.16;66.76;95108.39;1831886;78;20987;-74
2022/01/31 04:07:40;;;;;;;7.47;2.10;;;;;;;-0.17;66.73;95109.25;1831378;78;21093;-74
2022/01/31 04:10:07;;;;;;;2.90;0.70;;;;;;;-0.17;66.54;95131.30;1831898;78;20958;-74
2022/01/31 04:12:33;;;;;;;8.13;1.73;;;;;;;-0.18;66.59;95131.69;1831938;78;21002;-73
2022/01/31 04:15:00;;;;;;;8.20;1.57;;;;;;;-0.19;66.57;95122.62;1831607;78;21014;-73
2022/01/31 04:17:26;;;;;;;23.80;13.67;;;;;;;-0.21;66.70;95107.02;1831830;78;21508;-73
2022/01/31 04:19:53;;;;;;;7.07;1.40;;;;;;;-0.22;66.84;95104.00;1831896;78;20986;-70
2022/01/31 04:22:20;;;;;;;6.83;2.10;;;;;;;-0.22;66.44;95111.78;1831253;78;21044;-72
2022/01/31 04:24:53;;;;;;;5.90;1.00;;;;;;;-0.20;66.58;95100.11;1831890;78;21416;-71
2022/01/31 04:27:19;;;;;;;7.23;2.13;;;;;;;-0.26;66.66;95087.94;1831120;78;21530;-71
2022/01/31 04:29:48;;;;;;;8.07;2.20;;;;;;;-0.30;66.72;95092.65;1832185;78;21002;-71
2022/01/31 04:32:14;;;;;;;7.03;1.60;;;;;;;-0.30;66.51;95083.58;1832042;78;20982;-71
2022/01/31 04:34:41;;;;;;;7.97;1.43;;;;;;;-0.33;66.80;95082.21;1831851;78;21010;-71
2022/01/31 04:37:10;;;;;;;5.63;1.50;;;;;;;-0.31;66.73;95097.37;1831891;78;21492;-71
2022/01/31 04:39:37;;;;;;;8.57;2.23;;;;;;;-0.37;66.87;95090.81;1832138;78;21527;-71
2022/01/31 04:42:04;;;;;;;3.93;0.87;;;;;;;-0.42;67.38;95093.76;1831929;78;20954;-73
2022/01/31 04:44:31;;;;;;;8.97;1.80;;;;;;;-0.41;67.62;95095.05;1828187;78;21535;-71
2022/01/31 04:46:57;;;;;;;8.23;1.97;;;;;;;-0.41;67.36;95095.48;1826147;78;21093;-71
2022/01/31 04:49:24;;;;;;;9.43;2.13;;;;;;;-0.40;67.40;95099.41;1825817;78;21061;-71
2022/01/31 04:51:51;;;;;;;14.77;2.17;;;;;;;-0.46;67.42;95095.41;1826382;78;20987;-71
2022/01/31 04:54:18;;;;;;;10.23;2.30;;;;;;;-0.41;67.11;95098.94;1825758;78;21067;-72
2022/01/31 04:56:46;;;;;;;7.60;2.27;;;;;;;-0.45;67.31;95107.55;1826297;78;21508;-71
2022/01/31 04:59:12;;;;;;;7.63;1.53;;;;;;;-0.52;67.94;95111.74;1826202;78;20979;-71
2022/01/31 05:01:42;;;;;;;17.33;7.53;;;;;;;-0.52;67.84;95108.28;1826306;78;20958;-71
2022/01/31 05:04:08;;;;;;;12.97;1.97;;;;;;;-0.55;68.02;95112.12;1826034;78;20966;-71
2022/01/31 05:06:37;;;;;;;8.27;2.87;;;;;;;-0.59;67.84;95113.78;1826344;78;21013;-71
2022/01/31 05:09:03;;;;;;;9.57;2.20;;;;;;;-0.60;67.92;95111.19;1825918;78;21013;-71
2022/01/31 05:11:30;;;;;;;6.93;2.57;;;;;;;-0.67;68.45;95107.18;1826284;78;21420;-71
2022/01/31 05:13:57;;;;;;;11.10;2.80;;;;;;;-0.70;68.81;95112.32;1826443;78;21010;-71
2022/01/31 05:16:23;;;;;;;8.37;1.93;;;;;;;-0.76;69.33;95110.91;1826170;78;21025;-71
2022/01/31 05:18:49;;;;;;;11.43;2.47;;;;;;;-0.81;69.23;95104.77;1826103;78;20997;-71
2022/01/31 05:21:19;;;;;;;7.87;2.87;;;;;;;-0.82;69.14;95105.63;1826232;78;21491;-71
2022/01/31 05:23:48;;;;;;;5.93;1.93;;;;;;;-0.82;69.24;95109.95;1826086;78;21006;-71
2022/01/31 05:26:14;;;;;;;7.87;2.47;;;;;;;-0.90;69.57;95103.34;1826004;78;20978;-71
2022/01/31 05:28:41;;;;;;;8.53;2.53;;;;;;;-0.97;69.60;95110.55;1826325;78;21010;-71
2022/01/31 05:31:07;;;;;;;11.97;3.17;;;;;;;-0.99;69.34;95107.92;1826407;78;20986;-71
2022/01/31 05:33:34;;;;;;;6.50;1.80;;;;;;;-1.02;69.30;95104.42;1826101;78;21065;-71
2022/01/31 05:36:00;;;;;;;8.60;2.60;;;;;;;-1.06;69.20;95109.08;1826189;78;20978;-71
2022/01/31 05:38:27;;;;;;;4.77;0.97;;;;;;;-1.12;69.31;95105.97;1826233;78;21006;-71
2022/01/31 05:40:53;;;;;;;6.03;1.67;;;;;;;-1.12;69.24;95111.14;1826496;78;20967;-71
2022/01/31 05:43:20;;;;;;;5.23;1.57;;;;;;;-1.13;69.12;95115.45;1820807;78;21081;-72
2022/01/31 05:45:47;;;;;;;16.97;2.27;;;;;;;-1.12;69.10;95112.44;1825997;78;21058;-72
2022/01/31 05:48:13;;;;;;;7.10;2.03;;;;;;;-1.10;68.82;95117.23;1826218;78;21483;-72
2022/01/31 05:50:40;;;;;;;9.10;2.60;;;;;;;-1.13;68.94;95111.57;1825893;78;21087;-72
2022/01/31 05:53:06;;;;;;;10.97;2.80;;;;;;;-1.10;68.72;95112.91;1825795;78;21005;-72
2022/01/31 05:55:33;;;;;;;4.77;1.50;;;;;;;-1.07;68.78;95114.69;1826424;78;20998;-72
2022/01/31 05:57:59;;;;;;;11.00;2.73;;;;;;;-1.11;68.69;95112.88;1826454;78;21018;-72
2022/01/31 06:00:25;;;;;;;12.20;3.13;;;;;;;-1.06;68.64;95114.25;1826072;78;20983;-72
2022/01/31 06:02:58;;;;;;;5.17;1.27;;;;;;;-1.04;68.87;95118.62;1826158;78;21066;-72
2022/01/31 06:05:27;;;;;;;9.25;2.15;;;;;;;-1.07;68.45;95118.57;1826144;78;20974;-73
2022/01/31 06:07:53;;;;;;;9.27;1.43;;;;;;;-1.01;68.27;95110.90;1826033;78;21014;-72
2022/01/31 06:10:22;;;;;;;10.63;2.43;;;;;;;-1.06;68.39;95104.77;1826250;78;20994;-72
2022/01/31 06:12:48;;;;;;;5.37;1.93;;;;;;;-1.02;68.39;95113.48;1825994;78;21030;-72
2022/01/31 06:15:14;;;;;;;9.60;2.57;;;;;;;-1.06;68.29;95107.78;1826124;78;21018;-72
2022/01/31 06:17:41;;;;;;;6.07;2.47;;;;;;;-1.00;68.23;95103.59;1826187;78;21042;-72
2022/01/31 06:20:08;;;;;;;18.87;5.37;;;;;;;-0.94;68.27;95095.92;1826192;78;21006;-72
2022/01/31 06:22:34;;;;;;;9.60;2.73;;;;;;;-0.93;67.96;95086.03;1826056;78;21049;-72
2022/01/31 06:25:01;;;;;;;12.97;2.80;;;;;;;-0.93;67.60;95092.51;1826047;78;20998;-72
2022/01/31 06:27:29;;;;;;;10.17;3.47;;;;;;;-0.87;67.58;95090.01;1824843;78;21021;-73
2022/01/31 06:29:56;;;;;;;13.13;2.70;;;;;;;-0.83;67.84;95088.76;1826330;78;21037;-73
2022/01/31 06:32:27;;;;;;;8.70;2.13;;;;;;;-0.83;67.41;95089.66;1826233;78;20959;-72
2022/01/31 06:34:55;;;;;;;10.93;3.00;;;;;;;-0.77;67.37;95100.53;1826154;78;21279;-73
2022/01/31 06:37:22;;;;;;;13.20;3.80;;;;;;;-0.67;67.14;95087.75;1826124;78;20994;-72
2022/01/31 06:39:48;;;;;;;10.50;2.90;;;;;;;-0.64;67.61;95089.52;1826089;78;20977;-72
2022/01/31 06:42:15;;;;;;;5.33;1.70;;;;;;;-0.50;67.79;95088.02;1826020;78;21009;-73
2022/01/31 06:44:41;;;;;;;7.30;2.40;;;;;;;-0.45;66.83;95085.08;1825876;78;21424;-73
2022/01/31 06:47:08;;;;;;;13.70;2.73;;;;;;;-0.29;66.89;95090.06;1826162;78;21022;-73
2022/01/31 06:49:34;;;;;;;9.27;3.73;;;;;;;-0.18;66.89;95078.54;1825991;78;21053;-72
2022/01/31 06:52:01;;;;;;;15.00;3.53;;;;;;;-0.19;65.83;95074.65;1826143;78;21488;-72
2022/01/31 06:54:27;;;;;;;16.83;6.70;;;;;;;-0.16;65.62;95074.25;1825964;78;20987;-75
2022/01/31 06:56:56;;;;;;;348.07;106.00;;;;;;;-0.19;65.29;95061.25;1826091;78;20990;-72
2022/01/31 06:59:22;;;;;;;122.57;33.30;;;;;;;-0.21;65.26;95064.25;1826137;78;21038;-72
2022/01/31 07:01:49;;;;;;;16.30;4.87;;;;;;;-0.23;65.29;95074.61;1826157;78;21066;-74
2022/01/31 07:04:16;;;;;;;9.87;2.37;;;;;;;-0.21;64.85;95078.50;1825139;78;21535;-81
2022/01/31 07:06:42;;;;;;;8.27;2.20;;;;;;;-0.33;63.99;95070.55;1824803;78;21081;-80
2022/01/31 07:09:08;;;;;;;10.77;2.60;;;;;;;-0.39;64.67;95071.33;1825347;78;22204;-71
2022/01/31 07:11:39;;;;;;;1129.83;477.40;;;;;;;-0.35;65.17;95073.14;1825710;78;20990;-86
2022/01/31 07:14:06;;;;;;;53.80;19.00;;;;;;;-0.33;64.86;95076.63;1825352;78;21070;-78
2022/01/31 07:16:31;;;;;;;28.97;12.33;;;;;;;-0.33;63.66;95077.03;1825700;78;20998;-81
2022/01/31 07:19:07;;;;;;;307.30;161.50;;;;;;;-0.28;63.93;95067.20;1825898;78;21062;-75
2022/01/31 07:21:39;;;;;;;67.07;33.13;;;;;;;-0.21;64.02;95060.36;1825191;78;21543;-76
2022/01/31 07:24:15;;;;;;;27.70;12.13;;;;;;;-0.11;64.00;95070.44;1825186;78;21002;-73
2022/01/31 07:26:30;;;;;;;4.97;1.70;;;;;;;-0.04;63.40;95070.54;1822958;78;21475;-76
2022/01/31 07:28:57;;;;;;;31.17;15.37;;;;;;;-0.07;61.74;95065.31;1826016;78;21053;-83
2022/01/31 07:31:24;;;;;;;15.97;7.57;;;;;;;-0.05;62.63;95052.35;1826067;78;20970;-70
2022/01/31 07:33:50;;;;;;;18.90;3.83;;;;;;;0.06;62.59;95054.67;1825954;78;21440;-70
2022/01/31 07:36:18;;;;;;;26.37;16.27;;;;;;;0.11;62.26;95042.64;1826130;78;20951;-72
2022/01/31 07:38:44;;;;;;;18.40;8.83;;;;;;;0.14;62.52;95043.96;1825946;78;21029;-69
2022/01/31 07:41:14;;;;;;;8.80;2.10;;;;;;;0.17;62.21;95035.34;1825936;78;21416;-69
2022/01/31 07:43:43;;;;;;;12.67;3.73;;;;;;;0.27;61.20;95037.63;1825691;78;21496;-69
2022/01/31 07:46:07;;;;;;;10.50;2.23;;;;;;;0.37;61.28;95027.80;1825453;78;20990;-73
2022/01/31 07:48:34;;;;;;;13.40;2.73;;;;;;;0.43;61.19;95027.89;1819902;77;21117;-73
2022/01/31 07:51:00;;;;;;;9.10;3.07;;;;;;;0.55;60.47;95026.69;1817923;77;21002;-72
2022/01/31 07:53:26;;;;;;;14.00;2.83;;;;;;;0.66;61.40;95027.27;1811764;79;20955;-74
2022/01/31 07:55:53;;;;;;;12.57;3.40;;;;;;;0.86;60.64;95020.09;1817060;78;21034;-71
2022/01/31 07:58:20;;;;;;;10.80;2.40;;;;;;;0.96;60.53;95018.46;1817331;79;20956;-70
2022/01/31 08:00:47;;;;;;;14.10;4.23;;;;;;;0.99;58.77;95012.42;1817089;79;21018;-73
2022/01/31 08:03:14;;;;;;;10.03;2.63;;;;;;;1.18;59.50;95013.43;1820100;78;21022;-71
2022/01/31 08:05:41;;;;;;;14.80;5.10;;;;;;;1.35;59.25;95014.88;1820991;79;21009;-70
2022/01/31 08:08:08;;;;;;;6.70;2.40;;;;;;;1.55;58.75;95004.17;1822697;78;21479;-71
2022/01/31 08:10:37;;;;;;;13.87;3.40;;;;;;;1.56;57.79;94995.50;1826143;78;21050;-70
2022/01/31 08:13:06;;;;;;;14.40;4.00;;;;;;;1.47;57.59;95002.83;1825873;78;21512;-71
2022/01/31 08:15:34;;;;;;;17.03;4.93;;;;;;;1.54;58.12;94996.35;1826386;78;20978;-72
2022/01/31 08:18:00;;;;;;;11.53;3.90;;;;;;;1.47;58.06;94990.27;1826303;78;21026;-74
2022/01/31 08:20:26;;;;;;;11.17;2.73;;;;;;;1.51;57.83;94998.09;1825885;78;21484;-73
2022/01/31 08:22:53;;;;;;;14.20;3.03;;;;;;;1.53;57.63;94992.89;1824550;78;21022;-72
2022/01/31 08:25:19;;;;;;;12.57;3.00;;;;;;;1.59;57.60;94986.45;1824303;79;21524;-69
2022/01/31 08:27:47;;;;;;;12.83;3.30;;;;;;;1.66;57.33;94995.13;1824372;79;21007;-73
2022/01/31 08:30:20;;;;;;;8.83;2.40;;;;;;;1.66;56.97;94980.42;1824303;79;21022;-71
2022/01/31 08:32:57;;;;;;;8.00;2.23;;;;;;;1.65;56.83;94976.50;1823830;78;21029;-70
2022/01/31 08:37:59;;;;;;;5.10;1.90;;;;;;;1.70;56.62;94972.20;1826199;78;20935;-71
2022/01/31 08:40:26;;;;;;;13.07;2.23;;;;;;;1.69;56.07;94967.44;1825920;78;21062;-74
2022/01/31 08:42:52;;;;;;;11.77;2.57;;;;;;;1.69;55.83;94954.43;1826089;78;20990;-71
2022/01/31 08:45:19;;;;;;;19.53;11.70;;;;;;;1.67;55.91;94943.14;1829005;78;21014;-73
2022/01/31 08:47:46;;;;;;;22.10;11.70;;;;;;;1.55;55.75;94941.77;1832093;78;20958;-73
2022/01/31 08:50:12;;;;;;;16.07;5.97;;;;;;;1.66;56.32;94934.02;1831937;78;20994;-69
2022/01/31 08:52:39;;;;;;;19.83;11.27;;;;;;;1.77;56.04;94930.20;1831640;78;21002;-69
2022/01/31 08:55:09;;;;;;;11.83;2.33;;;;;;;1.84;55.69;94933.23;1831752;78;21532;-68
2022/01/31 08:57:36;;;;;;;15.97;9.10;;;;;;;1.99;55.29;94921.62;1831718;78;21010;-70
2022/01/31 09:00:06;;;;;;;12.90;6.53;;;;;;;2.16;55.16;94919.91;1831938;78;21002;-69
2022/01/31 09:02:39;;;;;;;16.07;7.10;;;;;;;2.31;55.17;94913.02;1831994;78;20958;-69
2022/01/31 09:05:05;;;;;;;13.70;3.63;;;;;;;2.33;54.41;94900.44;1830172;78;21496;-69
2022/01/31 09:07:32;;;;;;;13.17;2.93;;;;;;;2.54;54.11;94895.68;1830186;78;21006;-69
2022/01/31 09:10:00;;;;;;;9.60;2.20;;;;;;;2.73;53.73;94899.62;1830091;78;21007;-69
2022/01/31 09:12:30;;;;;;;14.73;4.07;;;;;;;2.67;51.69;94888.77;1830302;78;21017;-70
2022/01/31 09:14:56;;;;;;;9.57;2.77;;;;;;;2.69;52.02;94891.36;1818102;78;21522;-71
2022/01/31 09:17:23;;;;;;;14.20;2.97;;;;;;;2.55;52.11;94892.23;1798004;80;20972;-73
2022/01/31 09:19:50;;;;;;;10.60;3.53;;;;;;;2.50;52.78;94890.05;1798982;79;21019;-71
2022/01/31 09:22:17;;;;;;;11.27;3.93;;;;;;;2.58;52.68;94890.92;1829076;78;20966;-71
2022/01/31 09:24:44;;;;;;;11.73;4.40;;;;;;;2.60;53.68;94896.14;1831253;78;20998;-69
2022/01/31 09:27:11;;;;;;;11.37;4.07;;;;;;;2.78;53.02;94888.77;1831914;78;21517;-71
2022/01/31 09:29:38;;;;;;;6.67;2.03;;;;;;;2.90;52.65;94879.64;1831550;78;20994;-70
2022/01/31 09:32:06;;;;;;;16.83;4.27;;;;;;;2.98;51.58;94876.59;1831383;78;21460;-70
2022/01/31 09:34:33;;;;;;;14.00;3.63;;;;;;;3.13;52.04;94868.33;1831606;78;21535;-71
2022/01/31 09:37:01;;;;;;;14.80;3.77;;;;;;;3.25;51.75;94879.60;1831085;78;21062;-79
2022/01/31 09:39:27;;;;;;;10.97;2.80;;;;;;;3.31;50.82;94870.89;1831512;78;21490;-79
2022/01/31 09:41:57;;;;;;;11.33;2.83;;;;;;;3.36;50.67;94876.10;1831521;78;20984;-75
2022/01/31 09:47:04;;;;;;;9.53;2.53;;;;;;;3.40;49.83;94870.87;1831508;78;21014;-76
2022/01/31 09:49:22;;;;;;;11.73;2.60;;;;;;;3.33;50.91;94865.24;1831484;78;20986;-72
2022/01/31 09:51:50;;;;;;;12.77;3.37;;;;;;;3.49;50.30;94867.80;1830148;78;20950;-79
2022/01/31 09:54:17;;;;;;;10.13;2.80;;;;;;;3.47;49.10;94863.44;1829449;78;21482;-75
2022/01/31 09:56:46;;;;;;;12.53;3.70;;;;;;;3.62;49.98;94854.70;1829672;78;21006;-73
2022/01/31 09:59:16;;;;;;;12.47;2.77;;;;;;;3.78;50.13;94852.92;1829655;78;20999;-74
2022/01/31 10:01:51;;;;;;;11.40;3.20;;;;;;;3.72;48.71;94858.59;1829949;78;21026;-73
2022/01/31 10:04:18;;;;;;;;;;;;;;;3.78;49.44;94854.63;1832043;78;20983;-75
2022/01/31 10:06:49;;;;;;;7.03;2.50;;;;;;;3.96;48.28;94845.88;1829542;78;20121;-73
2022/01/31 10:09:21;;;;;;;13.10;2.87;;;;;;;4.20;47.81;94839.63;1830001;78;21533;-75
2022/01/31 10:12:25;;;;;;;15.13;4.07;;;;;;;4.48;47.38;94837.70;1830185;78;21491;-81
2022/01/31 10:17:36;;;;;;;9.30;2.93;;;;;;;4.45;46.36;94821.61;1830228;78;21086;-80
2022/01/31 10:20:12;;;;;;;10.77;2.73;;;;;;;4.52;46.45;94819.38;1829733;78;21014;-76
2022/01/31 10:22:39;;;;;;;10.83;2.33;;;;;;;4.88;46.03;94819.95;1830249;78;20991;-73
2022/01/31 10:25:13;;;;;;;8.90;1.90;;;;;;;5.42;44.88;94807.66;1830055;78;21488;-72
2022/01/31 10:27:51;;;;;;;7.07;2.27;;;;;;;5.48;42.81;94791.01;1830131;78;21010;-72
2022/01/31 10:30:27;;;;;;;8.43;2.60;;;;;;;5.60;42.30;94779.95;1830264;78;21034;-73
2022/01/31 10:32:57;;;;;;;12.53;3.27;;;;;;;5.83;43.06;94781.41;1830046;78;21488;-75
2022/01/31 10:35:31;;;;;;;10.83;3.00;;;;;;;6.00;42.49;94778.15;1829785;78;21041;-70
2022/01/31 10:38:06;;;;;;;8.53;2.40;;;;;;;6.24;42.78;94771.67;1830148;78;20998;-71
2022/01/31 10:54:24;;;;;;;11.77;3.00;;;;;;;6.73;39.51;94768.73;1824272;78;21002;-70
2022/01/31 10:56:54;;;;;;;7.97;2.70;;;;;;;6.59;39.70;94745.81;1822054;79;21086;-79
2022/01/31 10:59:28;;;;;;;8.87;2.23;;;;;;;6.46;39.26;94745.15;1824392;79;20979;-70
2022/01/31 11:01:57;;;;;;;10.23;2.50;;;;;;;6.43;40.69;94749.99;1824078;79;21002;-72
2022/01/31 11:04:24;;;;;;;6.83;1.80;;;;;;;6.54;39.75;94754.20;1824299;79;21013;-72
2022/01/31 11:06:58;;;;;;;10.07;2.43;;;;;;;6.98;38.21;94753.44;1824400;79;21516;-72
2022/01/31 11:09:25;;;;;;;12.30;3.70;;;;;;;6.96;38.09;94742.55;1824296;79;21002;-72
2022/01/31 11:11:51;;;;;;;12.27;3.20;;;;;;;7.07;38.03;94747.14;1792770;79;21034;-72
2022/01/31 11:14:20;;;;;;;11.90;3.33;;;;;;;7.51;37.04;94753.27;1824290;79;20983;-71
2022/01/31 11:16:49;;;;;;;16.10;4.63;;;;;;;7.68;37.66;94748.54;1824135;79;21038;-71
2022/01/31 11:19:23;;;;;;;11.70;3.40;;;;;;;7.73;37.06;94751.08;1824346;79;21519;-72
2022/01/31 11:21:48;;;;;;;8.70;3.00;;;;;;;7.46;36.75;94737.64;1823274;79;21034;-72
2022/01/31 11:24:27;;;;;;;6.37;2.00;;;;;;;6.99;37.44;94754.30;1824445;79;21464;-71
2022/01/31 11:27:01;;;;;;;10.60;3.90;;;;;;;6.69;38.35;94750.00;1824228;79;21006;-72
2022/01/31 11:29:27;;;;;;;12.63;3.70;;;;;;;6.40;39.74;94748.73;1824239;79;21470;-72
2022/01/31 11:31:54;;;;;;;10.33;2.50;;;;;;;6.38;40.08;94742.66;1824328;79;21106;-72
2022/01/31 11:34:23;;;;;;;10.43;2.50;;;;;;;6.47;39.25;94739.00;1824338;79;20996;-71
2022/01/31 11:36:51;;;;;;;9.17;3.20;;;;;;;6.18;39.56;94749.97;1824254;79;21432;-72
2022/01/31 11:39:17;;;;;;;12.53;2.57;;;;;;;5.93;40.62;94738.50;1824342;79;21033;-72
2022/01/31 11:41:55;;;;;;;7.33;2.33;;;;;;;5.44;40.49;94726.06;1824152;79;20990;-72
2022/01/31 11:44:36;;;;;;;10.63;3.17;;;;;;;5.59;41.69;94723.28;1823818;79;21049;-72
2022/01/31 11:47:06;;;;;;;10.57;2.67;;;;;;;5.51;41.44;94722.94;1828953;78;21053;-72
2022/01/31 11:49:52;;;;;;;13.17;3.30;;;;;;;5.42;42.25;94736.56;1830175;78;21472;-72
2022/01/31 11:52:21;;;;;;;13.63;3.63;;;;;;;5.67;43.58;94717.05;1829960;78;20959;-72
2022/01/31 11:54:54;;;;;;;10.73;3.20;;;;;;;5.80;42.10;94706.40;1829862;78;20975;-72
2022/01/31 11:57:26;;;;;;;11.00;2.77;;;;;;;5.59;41.83;94706.27;1829764;78;20939;-72
2022/01/31 12:00:11;;;;;;;8.70;2.77;;;;;;;5.29;43.09;94702.72;1830272;78;21484;-72
2022/01/31 12:02:57;;;;;;;13.00;4.17;;;;;;;4.97;43.80;94704.84;1829937;78;21062;-72